createdAt,value
2016-09-11T00:00:17.678Z,18.97
2016-09-11T00:01:17.297Z,19.01
2016-09-11T00:02:18.063Z,19.07
2016-09-11T00:03:17.460Z,18.98
2016-09-11T00:04:17.826Z,18.96
2016-09-11T00:05:17.404Z,19.01
2016-09-11T00:06:17.495Z,19.08
2016-09-11T00:07:17.454Z,19.08
2016-09-11T00:08:18.073Z,19.08
2016-09-11T00:09:17.494Z,19.05
2016-09-11T00:10:17.516Z,19.08
2016-09-11T00:11:17.845Z,19.07
2016-09-11T00:12:17.916Z,19.11
2016-09-11T00:13:18.134Z,19.01
2016-09-11T00:14:17.984Z,18.98
2016-09-11T00:15:17.946Z,18.96
2016-09-11T00:16:18.014Z,18.89
2016-09-11T00:17:17.665Z,18.86
2016-09-11T00:18:18.108Z,19.01
2016-09-11T00:19:18.033Z,18.88
2016-09-11T00:20:18.077Z,18.94
2016-09-11T00:21:17.803Z,18.78
2016-09-11T00:22:18.132Z,18.73
2016-09-11T00:23:18.124Z,18.71
2016-09-11T00:24:17.912Z,18.68
2016-09-11T00:25:18.236Z,18.6
2016-09-11T00:26:17.942Z,18.73
2016-09-11T00:27:17.993Z,18.68
2016-09-11T00:28:18.267Z,18.64
2016-09-11T00:29:18.287Z,18.67
2016-09-11T00:30:18.292Z,18.74
2016-09-11T00:31:18.027Z,18.68
2016-09-11T00:32:18.121Z,18.71
2016-09-11T00:33:18.376Z,18.82
2016-09-11T00:34:18.081Z,18.79
2016-09-11T00:35:18.122Z,18.76
2016-09-11T00:36:18.452Z,18.86
2016-09-11T00:37:18.168Z,18.91
2016-09-11T00:38:18.183Z,18.92
2016-09-11T00:39:18.507Z,18.86
2016-09-11T00:40:18.232Z,18.91
2016-09-11T00:41:18.255Z,18.89
2016-09-11T00:42:18.911Z,18.85
2016-09-11T00:43:18.316Z,18.78
2016-09-11T00:44:18.664Z,18.78
2016-09-11T00:45:18.482Z,18.76
2016-09-11T00:46:18.693Z,18.89
2016-09-11T00:47:18.425Z,18.79
2016-09-11T00:48:18.434Z,18.86
2016-09-11T00:49:18.480Z,18.85
2016-09-11T00:50:18.511Z,18.92
2016-09-11T00:51:18.507Z,18.91
2016-09-11T00:52:18.526Z,18.89
2016-09-11T00:53:18.607Z,18.91
2016-09-11T00:54:18.920Z,18.92
2016-09-11T00:55:18.625Z,18.91
2016-09-11T00:56:18.933Z,19.04
2016-09-11T00:57:18.676Z,18.98
2016-09-11T00:58:18.982Z,19
2016-09-11T00:59:18.695Z,19
2016-09-11T01:00:18.730Z,18.98
2016-09-11T01:01:18.756Z,18.94
2016-09-11T01:02:19.178Z,19.08
2016-09-11T01:03:18.892Z,19.11
2016-09-11T01:04:19.166Z,19.07
2016-09-11T01:05:18.853Z,19.09
2016-09-11T01:06:18.913Z,19.11
2016-09-11T01:07:19.208Z,19.11
2016-09-11T01:08:18.917Z,19.19
2016-09-11T01:09:18.950Z,19.17
2016-09-11T01:10:19.287Z,19.09
2016-09-11T01:11:19.298Z,19.2
2016-09-11T01:12:19.078Z,19.09
2016-09-11T01:13:19.053Z,19.15
2016-09-11T01:14:19.248Z,19.07
2016-09-11T01:15:19.142Z,19.12
2016-09-11T01:16:19.230Z,19.15
2016-09-11T01:17:19.460Z,19.16
2016-09-11T01:18:19.206Z,19.2
2016-09-11T01:19:19.518Z,19.2
2016-09-11T01:20:19.223Z,19.23
2016-09-11T01:21:19.245Z,19.22
2016-09-11T01:22:19.746Z,19.27
2016-09-11T01:23:19.291Z,19.22
2016-09-11T01:24:19.628Z,19.17
2016-09-11T01:25:19.358Z,19.22
2016-09-11T01:26:19.675Z,19.19
2016-09-11T01:27:19.450Z,19.23
2016-09-11T01:28:19.735Z,19.16
2016-09-11T01:29:19.566Z,19.2
2016-09-11T01:30:19.463Z,19.17
2016-09-11T01:31:19.844Z,19.2
2016-09-11T01:32:19.553Z,19.16
2016-09-11T01:33:20.232Z,19.2
2016-09-11T01:34:19.554Z,19.2
2016-09-11T01:35:19.612Z,19.2
2016-09-11T01:36:19.922Z,19.15
2016-09-11T01:37:19.647Z,19.16
2016-09-11T01:38:19.656Z,19.11
2016-09-11T01:39:19.682Z,19.17
2016-09-11T01:40:19.700Z,19.07
2016-09-11T01:41:20.115Z,19.01
2016-09-11T01:42:19.754Z,18.98
2016-09-11T01:43:19.781Z,19
2016-09-11T01:44:19.922Z,18.85
2016-09-11T01:45:19.835Z,18.94
2016-09-11T01:46:19.900Z,18.76
2016-09-11T01:47:19.937Z,18.71
2016-09-11T01:48:20.211Z,18.73
2016-09-11T01:49:19.930Z,18.74
2016-09-11T01:50:20.265Z,18.6
2016-09-11T01:51:20.133Z,18.61
2016-09-11T01:52:19.996Z,18.55
2016-09-11T01:53:20.356Z,18.46
2016-09-11T01:54:20.457Z,18.39
2016-09-11T01:55:20.178Z,18.43
2016-09-11T01:56:20.414Z,18.3
2016-09-11T01:57:20.546Z,18.19
2016-09-11T01:58:20.453Z,18.24
2016-09-11T01:59:20.185Z,18.12
2016-09-11T02:00:20.504Z,18.06
2016-09-11T02:01:20.524Z,18.05
2016-09-11T02:02:20.263Z,17.97
2016-09-11T02:03:20.271Z,18
2016-09-11T02:04:20.685Z,17.86
2016-09-11T02:05:20.316Z,17.79
2016-09-11T02:06:20.640Z,17.8
2016-09-11T02:07:20.371Z,17.73
2016-09-11T02:08:21.046Z,17.71
2016-09-11T02:09:20.432Z,17.59
2016-09-11T02:10:21.059Z,17.66
2016-09-11T02:11:20.467Z,17.63
2016-09-11T02:12:20.718Z,17.52
2016-09-11T02:13:20.511Z,17.5
2016-09-11T02:14:20.837Z,17.42
2016-09-11T02:15:20.593Z,17.41
2016-09-11T02:16:20.613Z,17.41
2016-09-11T02:17:20.626Z,17.39
2016-09-11T02:18:20.621Z,17.38
2016-09-11T02:19:20.642Z,17.42
2016-09-11T02:20:20.703Z,17.31
2016-09-11T02:21:20.692Z,17.31
2016-09-11T02:22:20.725Z,17.31
2016-09-11T02:23:20.743Z,17.28
2016-09-11T02:24:20.773Z,17.24
2016-09-11T02:25:20.793Z,17.31
2016-09-11T02:26:21.134Z,17.27
2016-09-11T02:27:20.852Z,17.23
2016-09-11T02:28:20.852Z,17.2
2016-09-11T02:29:20.978Z,17.2
2016-09-11T02:30:20.909Z,17.2
2016-09-11T02:31:20.933Z,17.19
2016-09-11T02:32:21.005Z,17.16
2016-09-11T02:33:21.095Z,17.17
2016-09-11T02:34:21.006Z,17.2
2016-09-11T02:35:21.384Z,17.07
2016-09-11T02:36:21.087Z,17.1
2016-09-11T02:37:21.092Z,17.14
2016-09-11T02:38:21.882Z,17.17
2016-09-11T02:39:21.446Z,17.19
2016-09-11T02:40:21.143Z,17.14
2016-09-11T02:41:21.885Z,17.13
2016-09-11T02:42:21.235Z,17.17
2016-09-11T02:43:21.622Z,17.1
2016-09-11T02:44:21.275Z,17.02
2016-09-11T02:45:21.263Z,17.05
2016-09-11T02:46:21.811Z,16.98
2016-09-11T02:47:21.614Z,16.95
2016-09-11T02:48:21.958Z,16.95
2016-09-11T02:49:21.354Z,16.95
2016-09-11T02:50:21.437Z,16.83
2016-09-11T02:51:21.850Z,16.91
2016-09-11T02:52:21.551Z,16.83
2016-09-11T02:53:21.765Z,16.86
2016-09-11T02:54:21.552Z,16.89
2016-09-11T02:55:21.503Z,16.82
2016-09-11T02:56:21.906Z,16.89
2016-09-11T02:57:21.872Z,16.86
2016-09-11T02:58:21.589Z,16.86
2016-09-11T02:59:21.733Z,16.82
2016-09-11T03:00:22.228Z,16.82
2016-09-11T03:01:21.702Z,16.77
2016-09-11T03:02:21.695Z,16.86
2016-09-11T03:03:22.150Z,16.77
2016-09-11T03:04:21.841Z,16.86
2016-09-11T03:05:22.113Z,16.8
2016-09-11T03:06:21.754Z,16.8
2016-09-11T03:07:22.099Z,16.84
2016-09-11T03:08:21.805Z,16.79
2016-09-11T03:09:22.131Z,16.79
2016-09-11T03:10:22.224Z,16.8
2016-09-11T03:11:22.175Z,16.69
2016-09-11T03:12:21.944Z,16.73
2016-09-11T03:13:21.906Z,16.65
2016-09-11T03:14:21.967Z,16.79
2016-09-11T03:15:22.272Z,16.76
2016-09-11T03:16:22.056Z,16.66
2016-09-11T03:17:22.330Z,16.72
2016-09-11T03:18:22.394Z,16.64
2016-09-11T03:19:22.083Z,16.65
2016-09-11T03:20:22.063Z,16.68
2016-09-11T03:21:22.117Z,16.64
2016-09-11T03:22:22.205Z,16.69
2016-09-11T03:23:22.138Z,16.65
2016-09-11T03:24:22.504Z,16.69
2016-09-11T03:25:22.192Z,16.68
2016-09-11T03:26:22.862Z,16.66
2016-09-11T03:27:22.564Z,16.68
2016-09-11T03:28:22.294Z,16.65
2016-09-11T03:29:22.545Z,16.66
2016-09-11T03:30:22.329Z,16.72
2016-09-11T03:31:22.348Z,16.72
2016-09-11T03:32:22.664Z,16.72
2016-09-11T03:33:22.408Z,16.66
2016-09-11T03:34:22.543Z,16.62
2016-09-11T03:35:22.425Z,16.65
2016-09-11T03:36:22.579Z,16.58
2016-09-11T03:37:22.916Z,16.65
2016-09-11T03:38:23.115Z,16.65
2016-09-11T03:39:22.830Z,16.65
2016-09-11T03:40:22.644Z,16.64
2016-09-11T03:41:22.910Z,16.68
2016-09-11T03:42:22.583Z,16.62
2016-09-11T03:43:22.948Z,16.62
2016-09-11T03:44:22.645Z,16.59
2016-09-11T03:45:22.653Z,16.66
2016-09-11T03:46:22.684Z,16.61
2016-09-11T03:47:22.794Z,16.68
2016-09-11T03:48:23.034Z,16.66
2016-09-11T03:49:22.762Z,16.59
2016-09-11T03:50:23.071Z,16.59
2016-09-11T03:51:23.116Z,16.66
2016-09-11T03:52:23.124Z,16.54
2016-09-11T03:53:22.835Z,16.49
2016-09-11T03:54:23.193Z,16.61
2016-09-11T03:55:23.193Z,16.49
2016-09-11T03:56:23.083Z,16.4
2016-09-11T03:57:22.935Z,16.43
2016-09-11T03:58:23.371Z,16.46
2016-09-11T03:59:23.341Z,16.4
2016-09-11T04:00:23.735Z,16.47
2016-09-11T04:01:23.026Z,16.28
2016-09-11T04:02:23.537Z,16.29
2016-09-11T04:03:23.452Z,16.29
2016-09-11T04:04:23.653Z,16.25
2016-09-11T04:05:23.765Z,16.21
2016-09-11T04:06:23.147Z,16.22
2016-09-11T04:07:23.184Z,16.25
2016-09-11T04:08:23.172Z,16.17
2016-09-11T04:09:23.623Z,16.09
2016-09-11T04:10:23.592Z,16.17
2016-09-11T04:11:23.307Z,16.16
2016-09-11T04:12:23.685Z,16.06
2016-09-11T04:13:23.979Z,15.96
2016-09-11T04:14:23.642Z,15.94
2016-09-11T04:15:23.592Z,15.87
2016-09-11T04:16:23.783Z,15.83
2016-09-11T04:17:23.607Z,15.78
2016-09-11T04:18:23.802Z,15.83
2016-09-11T04:19:23.741Z,15.76
2016-09-11T04:20:24.190Z,15.75
2016-09-11T04:21:23.633Z,15.7
2016-09-11T04:22:23.849Z,15.76
2016-09-11T04:23:23.634Z,15.65
2016-09-11T04:24:23.810Z,15.67
2016-09-11T04:25:23.676Z,15.66
2016-09-11T04:26:23.905Z,15.63
2016-09-11T04:27:23.980Z,15.62
2016-09-11T04:28:24.262Z,15.57
2016-09-11T04:29:24.274Z,15.54
2016-09-11T04:30:24.291Z,15.55
2016-09-11T04:31:24.322Z,15.51
2016-09-11T04:32:24.331Z,15.52
2016-09-11T04:33:24.373Z,15.52
2016-09-11T04:34:24.082Z,15.47
2016-09-11T04:35:24.407Z,15.47
2016-09-11T04:36:23.800Z,15.5
2016-09-11T04:37:24.158Z,15.54
2016-09-11T04:38:24.461Z,15.54
2016-09-11T04:39:24.509Z,15.54
2016-09-11T04:40:24.508Z,15.47
2016-09-11T04:41:24.235Z,15.45
2016-09-11T04:42:24.577Z,15.45
2016-09-11T04:43:24.279Z,15.43
2016-09-11T04:44:24.354Z,15.51
2016-09-11T04:45:24.329Z,15.47
2016-09-11T04:46:24.415Z,15.44
2016-09-11T04:47:24.695Z,15.44
2016-09-11T04:48:24.399Z,15.43
2016-09-11T04:49:24.409Z,15.51
2016-09-11T04:50:24.524Z,15.45
2016-09-11T04:51:24.768Z,15.43
2016-09-11T04:52:24.489Z,15.44
2016-09-11T04:53:24.811Z,15.48
2016-09-11T04:54:24.823Z,15.48
2016-09-11T04:55:24.855Z,15.43
2016-09-11T04:56:24.575Z,15.54
2016-09-11T04:57:24.587Z,15.52
2016-09-11T04:58:24.922Z,15.57
2016-09-11T04:59:24.648Z,15.52
2016-09-11T05:00:24.972Z,15.55
2016-09-11T05:01:24.994Z,15.67
2016-09-11T05:02:25.011Z,15.69
2016-09-11T05:03:24.732Z,15.63
2016-09-11T05:04:24.444Z,15.7
2016-09-11T05:05:25.078Z,15.7
2016-09-11T05:06:24.789Z,15.72
2016-09-11T05:07:25.191Z,15.7
2016-09-11T05:08:25.149Z,15.8
2016-09-11T05:09:24.864Z,15.87
2016-09-11T05:10:24.883Z,15.83
2016-09-11T05:11:25.215Z,16
2016-09-11T05:12:25.231Z,15.94
2016-09-11T05:13:24.953Z,16
2016-09-11T05:14:25.313Z,16.1
2016-09-11T05:15:25.325Z,16.16
2016-09-11T05:16:25.023Z,16.16
2016-09-11T05:17:25.363Z,16.24
2016-09-11T05:18:25.375Z,16.26
2016-09-11T05:19:25.395Z,16.31
2016-09-11T05:20:25.199Z,16.43
2016-09-11T05:21:25.127Z,16.46
2016-09-11T05:22:25.203Z,16.58
2016-09-11T05:23:25.193Z,16.64
2016-09-11T05:24:25.202Z,16.62
2016-09-11T05:25:25.233Z,16.66
2016-09-11T05:26:25.313Z,16.83
2016-09-11T05:27:25.579Z,16.86
2016-09-11T05:28:25.301Z,16.79
2016-09-11T05:29:25.313Z,16.95
2016-09-11T05:30:25.652Z,17.05
2016-09-11T05:31:25.694Z,17.04
2016-09-11T05:32:25.695Z,17.16
2016-09-11T05:33:25.406Z,17.13
2016-09-11T05:34:25.739Z,17.16
2016-09-11T05:35:25.134Z,17.19
2016-09-11T05:36:25.878Z,17.16
2016-09-11T05:37:25.199Z,17.19
2016-09-11T05:38:25.825Z,17.3
2016-09-11T05:39:25.873Z,17.27
2016-09-11T05:40:25.903Z,17.31
2016-09-11T05:41:25.614Z,17.28
2016-09-11T05:42:25.923Z,17.35
2016-09-11T05:43:25.705Z,17.41
2016-09-11T05:44:26.039Z,17.38
2016-09-11T05:45:25.873Z,17.6
2016-09-11T05:46:26.056Z,17.63
2016-09-11T05:47:25.735Z,17.72
2016-09-11T05:48:25.800Z,17.68
2016-09-11T05:49:25.782Z,17.75
2016-09-11T05:50:26.105Z,17.84
2016-09-11T05:51:25.829Z,17.84
2016-09-11T05:52:26.134Z,17.91
2016-09-11T05:53:26.183Z,18
2016-09-11T05:54:25.894Z,18.02
2016-09-11T05:55:26.221Z,18.19
2016-09-11T05:56:25.924Z,18.27
2016-09-11T05:57:26.294Z,18.28
2016-09-11T05:58:26.044Z,18.37
2016-09-11T05:59:26.329Z,18.33
2016-09-11T06:00:26.335Z,18.51
2016-09-11T06:01:26.363Z,18.57
2016-09-11T06:02:26.096Z,18.68
2016-09-11T06:03:26.415Z,18.79
2016-09-11T06:04:26.443Z,18.78
2016-09-11T06:05:26.466Z,18.85
2016-09-11T06:06:26.166Z,18.98
2016-09-11T06:07:26.504Z,18.97
2016-09-11T06:08:26.224Z,19.04
2016-09-11T06:09:26.366Z,19.12
2016-09-11T06:10:26.260Z,19.17
2016-09-11T06:11:26.709Z,19.29
2016-09-11T06:12:26.060Z,19.48
2016-09-11T06:13:26.087Z,19.59
2016-09-11T06:14:26.074Z,19.67
2016-09-11T06:15:26.080Z,19.84
2016-09-11T06:16:26.425Z,19.93
2016-09-11T06:17:26.720Z,20.15
2016-09-11T06:18:26.823Z,20.27
2016-09-11T06:19:26.509Z,20.29
2016-09-11T06:20:26.212Z,20.42
2016-09-11T06:21:26.246Z,20.53
2016-09-11T06:22:26.256Z,20.58
2016-09-11T06:23:26.314Z,20.74
2016-09-11T06:24:26.638Z,20.83
2016-09-11T06:25:27.146Z,20.89
2016-09-11T06:26:26.627Z,21.05
2016-09-11T06:27:26.665Z,21.1
2016-09-11T06:28:26.914Z,21.32
2016-09-11T06:29:26.577Z,21.44
2016-09-11T06:30:26.871Z,21.69
2016-09-11T06:31:26.947Z,21.89
2016-09-11T06:32:26.927Z,22.14
2016-09-11T06:33:26.612Z,22.31
2016-09-11T06:34:26.623Z,22.4
2016-09-11T06:35:26.871Z,22.49
2016-09-11T06:36:26.632Z,22.53
2016-09-11T06:37:26.938Z,22.49
2016-09-11T06:38:26.724Z,22.61
2016-09-11T06:39:27.312Z,22.81
2016-09-11T06:40:26.712Z,22.91
2016-09-11T06:41:27.574Z,23.2
2016-09-11T06:42:27.116Z,23.4
2016-09-11T06:43:27.107Z,23.64
2016-09-11T06:44:27.124Z,23.81
2016-09-11T06:45:27.146Z,24.21
2016-09-11T06:46:26.872Z,24.75
2016-09-11T06:47:27.633Z,25.26
2016-09-11T06:48:27.330Z,25.63
2016-09-11T06:49:26.945Z,26.06
2016-09-11T06:50:26.977Z,26.34
2016-09-11T06:51:27.360Z,26.66
2016-09-11T06:52:27.017Z,26.98
2016-09-11T06:53:27.366Z,27.37
2016-09-11T06:54:27.716Z,27.91
2016-09-11T06:55:27.413Z,28.06
2016-09-11T06:56:27.125Z,28.22
2016-09-11T06:57:27.172Z,28.41
2016-09-11T06:58:27.316Z,28.56
2016-09-11T06:59:27.223Z,28.71
2016-09-11T07:00:27.335Z,28.74
2016-09-11T07:01:27.267Z,29.12
2016-09-11T07:02:27.304Z,29.4
2016-09-11T07:03:27.361Z,29.67
2016-09-11T07:04:27.498Z,30.05
2016-09-11T07:05:27.380Z,30.31
2016-09-11T07:06:27.781Z,30.52
2016-09-11T07:07:27.453Z,30.73
2016-09-11T07:08:27.461Z,30.77
2016-09-11T07:09:27.507Z,30.74
2016-09-11T07:10:27.927Z,30.67
2016-09-11T07:11:28.194Z,30.58
2016-09-11T07:12:27.597Z,30.8
2016-09-11T07:13:27.758Z,30.58
2016-09-11T07:14:27.653Z,30.58
2016-09-11T07:15:28.042Z,30.23
2016-09-11T07:16:27.765Z,30.05
2016-09-11T07:17:27.734Z,30.11
2016-09-11T07:18:27.801Z,29.84
2016-09-11T07:19:28.103Z,29.52
2016-09-11T07:20:28.144Z,29.39
2016-09-11T07:21:27.853Z,29.35
2016-09-11T07:22:28.190Z,29.46
2016-09-11T07:23:27.903Z,29.53
2016-09-11T07:24:27.975Z,29.65
2016-09-11T07:25:27.963Z,29.76
2016-09-11T07:26:28.450Z,29.65
2016-09-11T07:27:28.112Z,29.61
2016-09-11T07:28:28.128Z,29.57
2016-09-11T07:29:28.463Z,29.71
2016-09-11T07:30:28.829Z,29.86
2016-09-11T07:31:28.155Z,29.83
2016-09-11T07:32:28.221Z,29.89
2016-09-11T07:33:28.196Z,29.81
2016-09-11T07:34:29.144Z,29.61
2016-09-11T07:35:28.888Z,29.4
2016-09-11T07:36:28.284Z,29.15
2016-09-11T07:37:28.505Z,28.9
2016-09-11T07:38:28.355Z,28.67
2016-09-11T07:39:28.374Z,28.15
2016-09-11T07:40:28.854Z,27.52
2016-09-11T07:41:28.735Z,26.83
2016-09-11T07:42:28.865Z,26.08
2016-09-11T07:43:28.633Z,25.67
2016-09-11T07:44:28.545Z,25.3
2016-09-11T07:45:28.561Z,24.89
2016-09-11T07:46:28.574Z,24.62
2016-09-11T07:47:28.632Z,24.31
2016-09-11T07:48:28.624Z,24.14
2016-09-11T07:49:28.654Z,23.94
2016-09-11T07:50:29.020Z,23.92
2016-09-11T07:51:28.735Z,23.84
2016-09-11T07:52:29.053Z,23.73
2016-09-11T07:53:28.805Z,23.66
2016-09-11T07:54:28.814Z,23.69
2016-09-11T07:55:28.956Z,23.7
2016-09-11T07:56:29.193Z,23.71
2016-09-11T07:57:29.601Z,23.73
2016-09-11T07:58:29.397Z,23.67
2016-09-11T07:59:29.255Z,23.69
2016-09-11T08:00:28.959Z,23.74
2016-09-11T08:01:29.105Z,23.99
2016-09-11T08:02:29.012Z,23.99
2016-09-11T08:03:29.064Z,23.88
2016-09-11T08:04:29.085Z,23.92
2016-09-11T08:05:29.455Z,23.86
2016-09-11T08:06:29.536Z,23.89
2016-09-11T08:07:29.164Z,23.95
2016-09-11T08:08:29.196Z,23.99
2016-09-11T08:09:29.538Z,24.03
2016-09-11T08:10:29.415Z,24.06
2016-09-11T08:11:29.313Z,24.11
2016-09-11T08:12:29.608Z,24.14
2016-09-11T08:13:29.715Z,24.13
2016-09-11T08:14:29.436Z,24.13
2016-09-11T08:15:29.424Z,24.18
2016-09-11T08:16:29.409Z,24.16
2016-09-11T08:17:29.432Z,24.22
2016-09-11T08:18:29.544Z,24.21
2016-09-11T08:19:29.497Z,24.25
2016-09-11T08:20:29.611Z,24.28
2016-09-11T08:21:29.534Z,24.41
2016-09-11T08:22:29.642Z,24.51
2016-09-11T08:23:29.644Z,24.55
2016-09-11T08:24:30.064Z,24.51
2016-09-11T08:25:29.697Z,24.74
2016-09-11T08:26:29.808Z,24.69
2016-09-11T08:27:30.131Z,24.77
2016-09-11T08:28:29.791Z,24.74
2016-09-11T08:29:29.836Z,24.69
2016-09-11T08:30:30.092Z,24.66
2016-09-11T08:31:29.932Z,24.69
2016-09-11T08:32:29.853Z,24.56
2016-09-11T08:33:29.875Z,24.51
2016-09-11T08:34:29.895Z,24.46
2016-09-11T08:35:29.988Z,24.4
2016-09-11T08:36:30.462Z,24.22
2016-09-11T08:37:30.287Z,24.21
2016-09-11T08:38:30.304Z,24.31
2016-09-11T08:39:30.345Z,24.41
2016-09-11T08:40:30.123Z,24.34
2016-09-11T08:41:30.394Z,24.38
2016-09-11T08:42:30.182Z,24.32
2016-09-11T08:43:30.150Z,24.22
2016-09-11T08:44:30.519Z,24.18
2016-09-11T08:45:30.497Z,24.03
2016-09-11T08:46:30.643Z,24.09
2016-09-11T08:47:30.251Z,24.13
2016-09-11T08:48:30.689Z,24.14
2016-09-11T08:49:30.625Z,24.19
2016-09-11T08:50:30.344Z,24.24
2016-09-11T08:51:30.366Z,24.25
2016-09-11T08:52:30.702Z,24.22
2016-09-11T08:53:30.425Z,24.37
2016-09-11T08:54:30.923Z,24.4
2016-09-11T08:55:30.477Z,24.56
2016-09-11T08:56:30.503Z,24.59
2016-09-11T08:57:30.833Z,24.58
2016-09-11T08:58:30.842Z,24.63
2016-09-11T08:59:30.609Z,24.53
2016-09-11T09:00:30.627Z,24.63
2016-09-11T09:01:31.268Z,24.75
2016-09-11T09:02:30.664Z,24.71
2016-09-11T09:03:30.888Z,24.89
2016-09-11T09:04:31.055Z,24.97
2016-09-11T09:05:31.054Z,24.96
2016-09-11T09:06:30.783Z,25.07
2016-09-11T09:07:30.871Z,25.07
2016-09-11T09:08:30.860Z,25.06
2016-09-11T09:09:31.183Z,24.96
2016-09-11T09:10:30.912Z,25.06
2016-09-11T09:11:31.224Z,25.01
2016-09-11T09:12:31.243Z,25
2016-09-11T09:13:31.298Z,24.92
2016-09-11T09:14:31.020Z,24.89
2016-09-11T09:15:31.634Z,24.79
2016-09-11T09:16:31.054Z,24.86
2016-09-11T09:17:31.374Z,24.93
2016-09-11T09:18:31.915Z,24.85
2016-09-11T09:19:31.224Z,24.97
2016-09-11T09:20:31.218Z,25.01
2016-09-11T09:21:31.182Z,25.04
2016-09-11T09:22:31.228Z,25.04
2016-09-11T09:23:31.546Z,25.14
2016-09-11T09:24:31.627Z,25.19
2016-09-11T09:25:32.280Z,25.06
2016-09-11T09:26:31.715Z,24.89
2016-09-11T09:27:31.627Z,25.01
2016-09-11T09:28:31.376Z,24.96
2016-09-11T09:29:31.767Z,24.99
2016-09-11T09:30:31.820Z,24.85
2016-09-11T09:31:31.825Z,24.55
2016-09-11T09:32:31.825Z,24.65
2016-09-11T09:33:32.147Z,24.68
2016-09-11T09:34:31.538Z,24.68
2016-09-11T09:35:31.740Z,24.77
2016-09-11T09:36:31.988Z,24.81
2016-09-11T09:37:31.723Z,24.71
2016-09-11T09:38:31.838Z,24.74
2016-09-11T09:39:31.758Z,24.77
2016-09-11T09:40:31.709Z,24.66
2016-09-11T09:41:31.805Z,24.66
2016-09-11T09:42:31.826Z,24.55
2016-09-11T09:43:31.793Z,24.24
2016-09-11T09:44:32.134Z,24.38
2016-09-11T09:45:31.854Z,24.47
2016-09-11T09:46:31.894Z,24.75
2016-09-11T09:47:32.210Z,24.77
2016-09-11T09:48:32.282Z,24.63
2016-09-11T09:49:31.974Z,24.77
2016-09-11T09:50:32.140Z,24.81
2016-09-11T09:51:32.342Z,24.89
2016-09-11T09:52:32.371Z,25
2016-09-11T09:53:32.234Z,25.09
2016-09-11T09:54:32.114Z,25.06
2016-09-11T09:55:32.146Z,25.11
2016-09-11T09:56:32.165Z,25.22
2016-09-11T09:57:32.215Z,25.3
2016-09-11T09:58:32.583Z,25.44
2016-09-11T09:59:32.255Z,25.63
2016-09-11T10:00:32.498Z,25.77
2016-09-11T10:01:32.290Z,25.85
2016-09-11T10:02:32.656Z,25.81
2016-09-11T10:03:32.678Z,25.77
2016-09-11T10:04:32.382Z,25.85
2016-09-11T10:05:32.465Z,25.89
2016-09-11T10:06:32.435Z,26.01
2016-09-11T10:07:32.481Z,26.03
2016-09-11T10:08:32.518Z,26.06
2016-09-11T10:09:32.523Z,26.07
2016-09-11T10:10:32.741Z,26.04
2016-09-11T10:11:33.204Z,26.16
2016-09-11T10:12:33.264Z,25.76
2016-09-11T10:13:33.003Z,25.39
2016-09-11T10:14:32.957Z,25.34
2016-09-11T10:15:32.689Z,25.15
2016-09-11T10:16:32.791Z,25.03
2016-09-11T10:17:33.243Z,24.89
2016-09-11T10:18:32.784Z,24.97
2016-09-11T10:19:33.115Z,25
2016-09-11T10:20:32.883Z,25.16
2016-09-11T10:21:32.965Z,25.26
2016-09-11T10:22:32.902Z,25.31
2016-09-11T10:23:33.245Z,25.56
2016-09-11T10:24:32.985Z,25.56
2016-09-11T10:25:33.298Z,25.67
2016-09-11T10:26:33.315Z,25.59
2016-09-11T10:27:33.339Z,25.39
2016-09-11T10:28:33.375Z,25.51
2016-09-11T10:29:33.402Z,25.4
2016-09-11T10:30:33.738Z,25.56
2016-09-11T10:31:33.122Z,25.73
2016-09-11T10:32:33.168Z,25.86
2016-09-11T10:33:33.206Z,26.03
2016-09-11T10:34:33.222Z,26.29
2016-09-11T10:35:33.803Z,26.52
2016-09-11T10:36:33.284Z,26.63
2016-09-11T10:37:33.456Z,26.64
2016-09-11T10:38:33.407Z,26.64
2016-09-11T10:39:33.443Z,26.27
2016-09-11T10:40:33.387Z,25.99
2016-09-11T10:41:33.455Z,25.54
2016-09-11T10:42:34.083Z,25.34
2016-09-11T10:43:33.488Z,25.33
2016-09-11T10:44:33.495Z,25.25
2016-09-11T10:45:33.910Z,25.19
2016-09-11T10:46:33.925Z,25.34
2016-09-11T10:47:33.784Z,25.33
2016-09-11T10:48:34.259Z,25.21
2016-09-11T10:49:33.861Z,25.37
2016-09-11T10:50:33.836Z,25.46
2016-09-11T10:51:33.813Z,25.66
2016-09-11T10:52:34.117Z,25.83
2016-09-11T10:53:34.019Z,26.15
2016-09-11T10:54:34.104Z,26.37
2016-09-11T10:55:34.153Z,26.55
2016-09-11T10:56:33.952Z,26.79
2016-09-11T10:57:33.970Z,26.76
2016-09-11T10:58:33.930Z,26.59
2016-09-11T10:59:34.022Z,26.67
2016-09-11T11:00:33.954Z,26.59
2016-09-11T11:01:34.608Z,26.59
2016-09-11T11:02:34.000Z,26.71
2016-09-11T11:03:34.186Z,26.7
2016-09-11T11:04:34.424Z,26.74
2016-09-11T11:05:34.753Z,26.76
2016-09-11T11:06:34.112Z,26.89
2016-09-11T11:07:34.784Z,26.91
2016-09-11T11:08:34.549Z,26.7
2016-09-11T11:09:34.524Z,26.59
2016-09-11T11:10:34.411Z,26.45
2016-09-11T11:11:34.301Z,26.41
2016-09-11T11:12:34.613Z,26.42
2016-09-11T11:13:34.336Z,26.29
2016-09-11T11:14:34.384Z,26.24
2016-09-11T11:15:34.569Z,26.13
2016-09-11T11:16:34.431Z,26.11
2016-09-11T11:17:34.766Z,26.07
2016-09-11T11:18:34.516Z,26.23
2016-09-11T11:19:34.509Z,26.42
2016-09-11T11:20:34.853Z,26.53
2016-09-11T11:21:34.618Z,26.67
2016-09-11T11:22:34.647Z,26.78
2016-09-11T11:23:34.621Z,26.66
2016-09-11T11:24:34.941Z,26.45
2016-09-11T11:25:35.064Z,26.39
2016-09-11T11:26:34.744Z,26.26
2016-09-11T11:27:34.888Z,26.24
2016-09-11T11:28:35.007Z,26.15
2016-09-11T11:29:34.787Z,26.06
2016-09-11T11:30:35.692Z,25.92
2016-09-11T11:31:35.204Z,25.78
2016-09-11T11:32:35.162Z,25.68
2016-09-11T11:33:35.254Z,25.56
2016-09-11T11:34:34.926Z,25.58
2016-09-11T11:35:35.576Z,25.56
2016-09-11T11:36:35.395Z,25.56
2016-09-11T11:37:35.360Z,25.7
2016-09-11T11:38:35.102Z,25.81
2016-09-11T11:39:35.391Z,25.96
2016-09-11T11:40:35.100Z,26.11
2016-09-11T11:41:35.126Z,26.22
2016-09-11T11:42:35.183Z,26.23
2016-09-11T11:43:35.883Z,26.23
2016-09-11T11:44:35.364Z,26.33
2016-09-11T11:45:35.286Z,26.39
2016-09-11T11:46:35.495Z,26.19
2016-09-11T11:47:35.623Z,25.8
2016-09-11T11:49:04.294Z,25.71
2016-09-11T11:49:37.353Z,25.78
2016-09-11T11:50:35.507Z,26.01
2016-09-11T11:51:35.671Z,26.23
2016-09-11T11:52:35.982Z,26.36
2016-09-11T11:53:35.828Z,26.04
2016-09-11T11:54:35.495Z,25.8
2016-09-11T11:55:35.528Z,25.73
2016-09-11T11:56:35.561Z,26.01
2016-09-11T11:57:35.755Z,26.3
2016-09-11T11:58:35.918Z,26.64
2016-09-11T11:59:36.066Z,26.66
2016-09-11T12:00:36.029Z,26.85
2016-09-11T12:01:35.714Z,27.19
2016-09-11T12:02:36.076Z,27.29
2016-09-11T12:03:35.776Z,27.19
2016-09-11T12:04:36.162Z,27.23
2016-09-11T12:05:36.292Z,26.91
2016-09-11T12:06:35.842Z,27.25
2016-09-11T12:07:36.367Z,27.41
2016-09-11T12:08:36.523Z,27.34
2016-09-11T12:09:35.947Z,27.23
2016-09-11T12:10:36.011Z,27.2
2016-09-11T12:11:36.825Z,26.86
2016-09-11T12:12:36.788Z,26.67
2016-09-11T12:13:36.464Z,26.66
2016-09-11T12:14:36.451Z,26.74
2016-09-11T12:15:36.448Z,26.63
2016-09-11T12:16:36.148Z,26.49
2016-09-11T12:17:36.289Z,26.56
2016-09-11T12:18:36.209Z,26.79
2016-09-11T12:19:36.547Z,26.74
2016-09-11T12:20:36.477Z,26.83
2016-09-11T12:21:36.575Z,27
2016-09-11T12:22:36.474Z,27.07
2016-09-11T12:23:36.536Z,27.18
2016-09-11T12:24:36.522Z,27.38
2016-09-11T12:25:36.583Z,27.34
2016-09-11T12:26:36.505Z,27.35
2016-09-11T12:27:36.867Z,27.16
2016-09-11T12:28:36.811Z,27.1
2016-09-11T12:29:36.535Z,27.07
2016-09-11T12:30:36.851Z,26.73
2016-09-11T12:31:36.872Z,26.66
2016-09-11T12:32:36.905Z,26.51
2016-09-11T12:33:36.654Z,26.59
2016-09-11T12:34:37.017Z,26.76
2016-09-11T12:35:36.980Z,26.68
2016-09-11T12:36:36.721Z,26.6
2016-09-11T12:37:37.068Z,26.59
2016-09-11T12:38:37.234Z,26.74
2016-09-11T12:39:37.128Z,26.97
2016-09-11T12:40:36.833Z,27.04
2016-09-11T12:41:36.884Z,27.03
2016-09-11T12:42:36.912Z,27
2016-09-11T12:43:36.916Z,26.98
2016-09-11T12:44:36.952Z,27.1
2016-09-11T12:45:37.299Z,27.15
2016-09-11T12:46:37.333Z,27.29
2016-09-11T12:47:37.391Z,27.33
2016-09-11T12:48:37.098Z,27.26
2016-09-11T12:49:37.104Z,27.28
2016-09-11T12:50:37.139Z,27.29
2016-09-11T12:51:37.773Z,27.37
2016-09-11T12:52:37.331Z,27.43
2016-09-11T12:53:37.235Z,27.71
2016-09-11T12:54:37.230Z,27.93
2016-09-11T12:55:37.281Z,27.82